THY3LT LTFM-LTAI
Flight info
| Callsign | THY3LT |
|---|---|
| Flight time | N/A |
| Altitude | 31000 |
| Route | RATVU1D/35L RATVU UT35 BABSA |
| Aircraft | A359/H-SDE2E3GHIJ3J4J5LM1ORWXY/LB1D1 |
Departure
| Time | 2026-05-01 12:49 |
|---|---|
| Airport | İstanbul Airport (LTFM) |
Arrival
| Time | N/A |
|---|---|
| Airport | Antalya International Airport (LTAI) |
| Time | Latitude | Longitude | Altitude | Speed | Heading |
|---|---|---|---|---|---|
| 2026-05-01 12:11 | 41.26787 | 28.73528 | 339 ft | 0 kts | 179° |
| 2026-05-01 12:35 | 41.26804 | 28.73528 | 336 ft | 4 kts | 178° |
| 2026-05-01 12:36 | 41.26826 | 28.73526 | 336 ft | 4 kts | 178° |
| 2026-05-01 12:36 | 41.26852 | 28.73531 | 336 ft | 4 kts | 212° |
| 2026-05-01 12:36 | 41.26868 | 28.73555 | 335 ft | 4 kts | 253° |
| 2026-05-01 12:36 | 41.26872 | 28.73589 | 335 ft | 3 kts | 269° |
| 2026-05-01 12:37 | 41.26872 | 28.73609 | 335 ft | 0 kts | 269° |
| 2026-05-01 12:43 | 41.26872 | 28.73586 | 335 ft | 9 kts | 270° |
| 2026-05-01 12:44 | 41.26871 | 28.73471 | 336 ft | 17 kts | 269° |
| 2026-05-01 12:44 | 41.26868 | 28.73288 | 337 ft | 15 kts | 269° |
| 2026-05-01 12:44 | 41.26866 | 28.73085 | 336 ft | 0 kts | 269° |
| 2026-05-01 12:45 | 41.26855 | 28.73017 | 335 ft | 3 kts | 234° |
| 2026-05-01 12:45 | 41.26781 | 28.72991 | 338 ft | 21 kts | 178° |
| 2026-05-01 12:45 | 41.26742 | 28.72992 | 337 ft | 5 kts | 178° |
| 2026-05-01 12:46 | 41.26671 | 28.72994 | 339 ft | 15 kts | 179° |
| 2026-05-01 12:46 | 41.26543 | 28.72997 | 335 ft | 17 kts | 179° |
| 2026-05-01 12:46 | 41.26408 | 28.72999 | 338 ft | 22 kts | 179° |
| 2026-05-01 12:46 | 41.26280 | 28.73002 | 339 ft | 6 kts | 179° |
| 2026-05-01 12:47 | 41.26230 | 28.72981 | 335 ft | 9 kts | 225° |
| 2026-05-01 12:47 | 41.26222 | 28.72962 | 336 ft | 2 kts | 246° |
| 2026-05-01 12:47 | 41.26216 | 28.72917 | 338 ft | 12 kts | 263° |
| 2026-05-01 12:47 | 41.26213 | 28.72741 | 336 ft | 24 kts | 269° |
| 2026-05-01 12:48 | 41.26214 | 28.72568 | 339 ft | 16 kts | 280° |
| 2026-05-01 12:48 | 41.26249 | 28.72525 | 337 ft | 4 kts | 357° |
| 2026-05-01 12:48 | 41.26429 | 28.72522 | 338 ft | 62 kts | 360° |
| 2026-05-01 12:48 | 41.27122 | 28.72505 | 336 ft | 135 kts | 359° |
| 2026-05-01 12:49 | 41.28202 | 28.72468 | 777 ft | 160 kts | 5° |
| 2026-05-01 12:49 | 41.29317 | 28.72427 | 1784 ft | 169 kts | 2° |
| 2026-05-01 12:49 | 41.30591 | 28.72376 | 2501 ft | 194 kts | 3° |
| 2026-05-01 12:49 | 41.32010 | 28.72380 | 3072 ft | 214 kts | 5° |
| 2026-05-01 12:50 | 41.33546 | 28.72432 | 3726 ft | 225 kts | 5° |
| 2026-05-01 12:50 | 41.35137 | 28.72400 | 4481 ft | 234 kts | 358° |
| 2026-05-01 12:50 | 41.36715 | 28.71673 | 5228 ft | 250 kts | 333° |
| 2026-05-01 12:50 | 41.37899 | 28.69900 | 5993 ft | 268 kts | 301° |
| 2026-05-01 12:51 | 41.38284 | 28.67432 | 6817 ft | 279 kts | 276° |
| 2026-05-01 12:51 | 41.38265 | 28.64836 | 7699 ft | 279 kts | 271° |
| 2026-05-01 12:51 | 41.37953 | 28.59686 | 9440 ft | 281 kts | 256° |
| 2026-05-01 12:52 | 41.37095 | 28.57367 | 10348 ft | 283 kts | 234° |
| 2026-05-01 12:52 | 41.33457 | 28.54957 | 11048 ft | 323 kts | 185° |
| 2026-05-01 12:52 | 41.31154 | 28.54974 | 11405 ft | 338 kts | 180° |
| 2026-05-01 12:53 | 41.26396 | 28.55408 | 12680 ft | 347 kts | 169° |
| 2026-05-01 12:53 | 41.24137 | 28.56574 | 13305 ft | 354 kts | 150° |
| 2026-05-01 12:53 | 41.22192 | 28.58636 | 13942 ft | 362 kts | 139° |
| 2026-05-01 12:54 | 41.20364 | 28.60986 | 14459 ft | 368 kts | 137° |
| 2026-05-01 12:54 | 41.16684 | 28.65794 | 15391 ft | 380 kts | 138° |
| 2026-05-01 12:54 | 41.14767 | 28.68264 | 15946 ft | 378 kts | 138° |
| 2026-05-01 12:55 | 41.11359 | 28.73530 | 16271 ft | 382 kts | 126° |
| 2026-05-01 12:55 | 41.09895 | 28.76510 | 16657 ft | 388 kts | 125° |
| 2026-05-01 12:55 | 41.08431 | 28.79528 | 17267 ft | 390 kts | 125° |
| 2026-05-01 12:56 | 41.06951 | 28.82561 | 17814 ft | 393 kts | 125° |
| 2026-05-01 12:56 | 41.05459 | 28.85606 | 18417 ft | 395 kts | 126° |
| 2026-05-01 12:56 | 41.03776 | 28.88485 | 18892 ft | 395 kts | 137° |
| 2026-05-01 12:56 | 41.01608 | 28.90663 | 19327 ft | 391 kts | 155° |
| 2026-05-01 12:57 | 40.99075 | 28.91865 | 19802 ft | 385 kts | 173° |
| 2026-05-01 12:57 | 40.93790 | 28.91852 | 20776 ft | 383 kts | 184° |
| 2026-05-01 12:57 | 40.91113 | 28.92228 | 21249 ft | 392 kts | 172° |
| 2026-05-01 12:58 | 40.88478 | 28.93230 | 21726 ft | 396 kts | 166° |
| 2026-05-01 12:58 | 40.85859 | 28.94403 | 22204 ft | 399 kts | 165° |
| 2026-05-01 12:58 | 40.83221 | 28.95616 | 22669 ft | 402 kts | 165° |
| 2026-05-01 12:59 | 40.77932 | 28.98061 | 23687 ft | 404 kts | 166° |
| 2026-05-01 12:59 | 40.75272 | 28.99289 | 24057 ft | 406 kts | 166° |
| 2026-05-01 12:59 | 40.69926 | 29.01754 | 24183 ft | 408 kts | 166° |
| 2026-05-01 13:00 | 40.65436 | 29.03821 | 24177 ft | 409 kts | 166° |
| 2026-05-01 13:00 | 40.62786 | 29.05041 | 24176 ft | 409 kts | 166° |
| 2026-05-01 13:01 | 40.57395 | 29.07517 | 24578 ft | 412 kts | 166° |
| 2026-05-01 13:01 | 40.54647 | 29.08779 | 25066 ft | 413 kts | 166° |
| 2026-05-01 13:01 | 40.49231 | 29.11260 | 25924 ft | 417 kts | 167° |
| 2026-05-01 13:02 | 40.46482 | 29.12516 | 26369 ft | 420 kts | 167° |
| 2026-05-01 13:07 | 39.85713 | 29.40406 | 31116 ft | 450 kts | 165° |
| 2026-05-01 13:07 | 39.82831 | 29.42013 | 31117 ft | 451 kts | 164° |
| 2026-05-01 13:08 | 39.77074 | 29.45259 | 31105 ft | 451 kts | 164° |
| 2026-05-01 13:08 | 39.71309 | 29.48467 | 31103 ft | 451 kts | 164° |
| 2026-05-01 13:09 | 39.65529 | 29.51642 | 31107 ft | 452 kts | 165° |
| 2026-05-01 13:09 | 39.59709 | 29.54682 | 31078 ft | 451 kts | 167° |
| 2026-05-01 13:10 | 39.53855 | 29.57583 | 31098 ft | 449 kts | 167° |
| 2026-05-01 13:10 | 39.48010 | 29.60469 | 31098 ft | 450 kts | 167° |
| 2026-05-01 13:11 | 39.42171 | 29.63364 | 31095 ft | 451 kts | 167° |
| 2026-05-01 13:11 | 39.36303 | 29.66277 | 31100 ft | 452 kts | 167° |
| 2026-05-01 13:12 | 39.30470 | 29.69173 | 31098 ft | 452 kts | 167° |
| 2026-05-01 13:12 | 39.24558 | 29.72104 | 31098 ft | 452 kts | 167° |
| 2026-05-01 13:13 | 39.18722 | 29.74989 | 31096 ft | 454 kts | 167° |
| 2026-05-01 13:13 | 39.12819 | 29.77900 | 31092 ft | 455 kts | 167° |
| 2026-05-01 13:14 | 39.06908 | 29.80814 | 31087 ft | 455 kts | 167° |
| 2026-05-01 13:14 | 39.00993 | 29.83723 | 31076 ft | 455 kts | 167° |
| 2026-05-01 13:15 | 38.95080 | 29.86623 | 31090 ft | 456 kts | 167° |
| 2026-05-01 13:15 | 38.89140 | 29.89531 | 31088 ft | 457 kts | 167° |
| 2026-05-01 13:16 | 38.83181 | 29.92399 | 31080 ft | 457 kts | 167° |
| 2026-05-01 13:16 | 38.77216 | 29.95224 | 31080 ft | 457 kts | 167° |
| 2026-05-01 13:17 | 38.65294 | 30.00867 | 31064 ft | 457 kts | 167° |